sensor_id;sensor_type;location;lat;lon;timestamp;pressure;altitude;pressure_sealevel;temperature;humidity
829;BME280;396;52.558;13.188;2023-11-19T00:02:16;101008.84;;;5.67;99.07
829;BME280;396;52.558;13.188;2023-11-19T00:04:44;101007.47;;;5.64;99.18
829;BME280;396;52.558;13.188;2023-11-19T00:07:10;100995.88;;;5.59;98.75
829;BME280;396;52.558;13.188;2023-11-19T00:09:38;100975.19;;;5.59;98.26
829;BME280;396;52.558;13.188;2023-11-19T00:12:06;100967.34;;;5.57;98.77
829;BME280;396;52.558;13.188;2023-11-19T00:14:33;100968.19;;;5.58;99.28
829;BME280;396;52.558;13.188;2023-11-19T00:17:01;100969.28;;;5.62;99.35
829;BME280;396;52.558;13.188;2023-11-19T00:19:29;100955.59;;;5.64;98.55
829;BME280;396;52.558;13.188;2023-11-19T00:21:56;100956.38;;;5.59;98.81
829;BME280;396;52.558;13.188;2023-11-19T00:24:22;100959.06;;;5.59;99.41
829;BME280;396;52.558;13.188;2023-11-19T00:26:49;100955.31;;;5.60;99.48
829;BME280;396;52.558;13.188;2023-11-19T00:29:15;100949.19;;;5.70;99.37
829;BME280;396;52.558;13.188;2023-11-19T00:31:44;100951.63;;;5.71;99.49
829;BME280;396;52.558;13.188;2023-11-19T00:34:12;100938.69;;;5.68;99.71
829;BME280;396;52.558;13.188;2023-11-19T00:36:39;100928.25;;;5.72;99.38
829;BME280;396;52.558;13.188;2023-11-19T00:39:05;100906.75;;;5.77;99.28
829;BME280;396;52.558;13.188;2023-11-19T00:41:32;100914.56;;;5.83;98.78
829;BME280;396;52.558;13.188;2023-11-19T00:43:58;100903.59;;;5.85;97.92
829;BME280;396;52.558;13.188;2023-11-19T00:46:25;100894.97;;;5.83;98.26
829;BME280;396;52.558;13.188;2023-11-19T00:48:52;100894.16;;;5.82;98.47
829;BME280;396;52.558;13.188;2023-11-19T00:51:20;100875.06;;;5.84;98.84
829;BME280;396;52.558;13.188;2023-11-19T00:53:46;100874.25;;;5.83;98.89
829;BME280;396;52.558;13.188;2023-11-19T00:56:13;100866.75;;;5.86;98.35
829;BME280;396;52.558;13.188;2023-11-19T00:58:39;100867.28;;;5.88;98.33
829;BME280;396;52.558;13.188;2023-11-19T01:01:06;100857.31;;;5.83;98.82
829;BME280;396;52.558;13.188;2023-11-19T01:03:33;100844.16;;;5.81;98.75
829;BME280;396;52.558;13.188;2023-11-19T01:05:59;100838.28;;;5.85;98.67
829;BME280;396;52.558;13.188;2023-11-19T01:08:29;100832.88;;;5.85;98.44
829;BME280;396;52.558;13.188;2023-11-19T01:10:56;100802.25;;;5.86;97.62
829;BME280;396;52.558;13.188;2023-11-19T01:13:22;100803.06;;;5.91;97.18
829;BME280;396;52.558;13.188;2023-11-19T01:15:50;100811.97;;;5.92;97.06
829;BME280;396;52.558;13.188;2023-11-19T01:18:16;100801.69;;;5.89;96.31
829;BME280;396;52.558;13.188;2023-11-19T01:20:43;100800.09;;;5.88;96.36
829;BME280;396;52.558;13.188;2023-11-19T01:23:09;100793.69;;;5.94;95.99
829;BME280;396;52.558;13.188;2023-11-19T01:25:37;100786.44;;;5.94;95.58
829;BME280;396;52.558;13.188;2023-11-19T01:28:04;100786.69;;;5.93;95.70
829;BME280;396;52.558;13.188;2023-11-19T01:30:31;100777.25;;;5.90;95.13
829;BME280;396;52.558;13.188;2023-11-19T01:32:57;100777.56;;;5.94;95.15
829;BME280;396;52.558;13.188;2023-11-19T01:35:24;100759.25;;;5.91;95.04
829;BME280;396;52.558;13.188;2023-11-19T01:37:51;100744.19;;;5.90;95.43
829;BME280;396;52.558;13.188;2023-11-19T01:40:20;100726.50;;;5.94;94.75
829;BME280;396;52.558;13.188;2023-11-19T01:42:49;100738.53;;;5.91;95.33
829;BME280;396;52.558;13.188;2023-11-19T01:45:26;100724.63;;;5.94;95.72
829;BME280;396;52.558;13.188;2023-11-19T01:47:54;100720.56;;;6.02;95.63
829;BME280;396;52.558;13.188;2023-11-19T01:50:21;100714.13;;;6.03;95.79
829;BME280;396;52.558;13.188;2023-11-19T01:52:50;100702.81;;;6.06;95.45
829;BME280;396;52.558;13.188;2023-11-19T01:55:17;100695.31;;;6.08;96.05
829;BME280;396;52.558;13.188;2023-11-19T01:57:44;100700.41;;;6.04;97.23
829;BME280;396;52.558;13.188;2023-11-19T02:00:13;100689.66;;;5.99;98.86
829;BME280;396;52.558;13.188;2023-11-19T02:02:40;100677.03;;;5.95;99.56
829;BME280;396;52.558;13.188;2023-11-19T02:05:07;100662.47;;;5.91;99.25
829;BME280;396;52.558;13.188;2023-11-19T02:07:33;100661.16;;;5.93;98.59
829;BME280;396;52.558;13.188;2023-11-19T02:10:00;100638.28;;;5.86;100.00
829;BME280;396;52.558;13.188;2023-11-19T02:12:27;100629.41;;;5.85;99.81
829;BME280;396;52.558;13.188;2023-11-19T02:14:54;100600.91;;;5.84;99.75
829;BME280;396;52.558;13.188;2023-11-19T02:17:29;100601.19;;;5.77;100.00
829;BME280;396;52.558;13.188;2023-11-19T02:19:58;100608.16;;;5.78;100.00
829;BME280;396;52.558;13.188;2023-11-19T02:22:24;100611.41;;;5.80;99.48
829;BME280;396;52.558;13.188;2023-11-19T02:24:54;100613.53;;;5.83;99.48
829;BME280;396;52.558;13.188;2023-11-19T02:27:31;100604.38;;;5.79;99.12
829;BME280;396;52.558;13.188;2023-11-19T02:30:01;100594.72;;;5.83;99.25
829;BME280;396;52.558;13.188;2023-11-19T02:32:31;100598.75;;;5.86;99.14
829;BME280;396;52.558;13.188;2023-11-19T02:34:58;100590.41;;;5.88;99.05
829;BME280;396;52.558;13.188;2023-11-19T02:37:24;100585.03;;;5.88;98.40
829;BME280;396;52.558;13.188;2023-11-19T02:39:51;100578.06;;;5.87;98.60
829;BME280;396;52.558;13.188;2023-11-19T02:42:18;100575.66;;;5.85;99.37
829;BME280;396;52.558;13.188;2023-11-19T02:44:44;100570.53;;;5.89;98.71
829;BME280;396;52.558;13.188;2023-11-19T02:47:13;100564.34;;;5.88;98.97
829;BME280;396;52.558;13.188;2023-11-19T02:49:39;100549.81;;;5.84;98.85
829;BME280;396;52.558;13.188;2023-11-19T02:52:06;100530.78;;;5.80;99.86
829;BME280;396;52.558;13.188;2023-11-19T02:54:35;100514.06;;;5.89;99.53
829;BME280;396;52.558;13.188;2023-11-19T02:57:02;100512.47;;;5.88;100.00
829;BME280;396;52.558;13.188;2023-11-19T02:59:30;100543.13;;;5.92;99.78
829;BME280;396;52.558;13.188;2023-11-19T03:02:04;100530.50;;;5.97;99.06
829;BME280;396;52.558;13.188;2023-11-19T03:04:33;100532.66;;;5.95;99.07
829;BME280;396;52.558;13.188;2023-11-19T03:07:00;100538.81;;;6.01;98.78
829;BME280;396;52.558;13.188;2023-11-19T03:09:27;100532.91;;;6.04;97.91
829;BME280;396;52.558;13.188;2023-11-19T03:11:54;100534.00;;;6.03;98.29
829;BME280;396;52.558;13.188;2023-11-19T03:14:21;100528.63;;;6.03;98.58
829;BME280;396;52.558;13.188;2023-11-19T03:16:48;100537.50;;;6.03;99.02
829;BME280;396;52.558;13.188;2023-11-19T03:19:16;100521.09;;;6.00;100.00
829;BME280;396;52.558;13.188;2023-11-19T03:21:44;100509.56;;;5.94;100.00
829;BME280;396;52.558;13.188;2023-11-19T03:24:13;100506.56;;;5.91;100.00
829;BME280;396;52.558;13.188;2023-11-19T03:26:40;100501.19;;;5.86;100.00
829;BME280;396;52.558;13.188;2023-11-19T03:29:08;100468.94;;;5.75;100.00
829;BME280;396;52.558;13.188;2023-11-19T03:31:34;100460.09;;;5.70;100.00
829;BME280;396;52.558;13.188;2023-11-19T03:34:01;100467.09;;;5.66;100.00
829;BME280;396;52.558;13.188;2023-11-19T03:36:32;100466.28;;;5.65;100.00
829;BME280;396;52.558;13.188;2023-11-19T03:39:00;100466.81;;;5.57;100.00
829;BME280;396;52.558;13.188;2023-11-19T03:41:28;100443.72;;;5.56;100.00
829;BME280;396;52.558;13.188;2023-11-19T03:43:56;100444.03;;;5.49;100.00
829;BME280;396;52.558;13.188;2023-11-19T03:46:22;100435.13;;;5.49;100.00
829;BME280;396;52.558;13.188;2023-11-19T03:48:49;100418.78;;;5.45;100.00
829;BME280;396;52.558;13.188;2023-11-19T03:51:16;100396.19;;;5.46;100.00
829;BME280;396;52.558;13.188;2023-11-19T03:53:43;100397.53;;;5.44;100.00
829;BME280;396;52.558;13.188;2023-11-19T03:56:12;100397.00;;;5.47;100.00
829;BME280;396;52.558;13.188;2023-11-19T03:58:39;100398.63;;;5.43;100.00
829;BME280;396;52.558;13.188;2023-11-19T04:01:06;100375.81;;;5.45;100.00
829;BME280;396;52.558;13.188;2023-11-19T04:03:37;100379.03;;;5.42;100.00
829;BME280;396;52.558;13.188;2023-11-19T04:06:04;100371.25;;;5.41;100.00
829;BME280;396;52.558;13.188;2023-11-19T04:08:30;100370.72;;;5.34;100.00
829;BME280;396;52.558;13.188;2023-11-19T04:10:57;100360.47;;;5.36;100.00
829;BME280;396;52.558;13.188;2023-11-19T04:13:25;100352.69;;;5.39;100.00
829;BME280;396;52.558;13.188;2023-11-19T04:15:52;100352.69;;;5.39;100.00
829;BME280;396;52.558;13.188;2023-11-19T04:18:18;100354.59;;;5.34;100.00
829;BME280;396;52.558;13.188;2023-11-19T04:20:45;100343.06;;;5.33;100.00
829;BME280;396;52.558;13.188;2023-11-19T04:23:11;100347.88;;;5.31;100.00
829;BME280;396;52.558;13.188;2023-11-19T04:25:38;100334.72;;;5.35;100.00
829;BME280;396;52.558;13.188;2023-11-19T04:28:05;100332.03;;;5.35;100.00
829;BME280;396;52.558;13.188;2023-11-19T04:30:33;100350.56;;;5.36;100.00
829;BME280;396;52.558;13.188;2023-11-19T04:33:00;100348.69;;;5.37;100.00
829;BME280;396;52.558;13.188;2023-11-19T04:35:27;100344.38;;;5.41;100.00
829;BME280;396;52.558;13.188;2023-11-19T04:37:54;100326.63;;;5.40;100.00
829;BME280;396;52.558;13.188;2023-11-19T04:40:22;100328.28;;;5.41;100.00
829;BME280;396;52.558;13.188;2023-11-19T04:42:49;100314.84;;;5.41;100.00
829;BME280;396;52.558;13.188;2023-11-19T04:45:16;100317.25;;;5.37;100.00
829;BME280;396;52.558;13.188;2023-11-19T04:47:43;100321.03;;;5.36;100.00
829;BME280;396;52.558;13.188;2023-11-19T04:50:10;100318.34;;;5.36;100.00
829;BME280;396;52.558;13.188;2023-11-19T04:52:37;100306.78;;;5.41;100.00
829;BME280;396;52.558;13.188;2023-11-19T04:55:06;100293.59;;;5.39;100.00
829;BME280;396;52.558;13.188;2023-11-19T04:57:32;100289.03;;;5.40;100.00
829;BME280;396;52.558;13.188;2023-11-19T04:59:59;100282.06;;;5.39;100.00
829;BME280;396;52.558;13.188;2023-11-19T05:02:26;100273.50;;;5.37;100.00
829;BME280;396;52.558;13.188;2023-11-19T05:04:54;100247.44;;;5.37;100.00
829;BME280;396;52.558;13.188;2023-11-19T05:07:20;100245.00;;;5.41;100.00
829;BME280;396;52.558;13.188;2023-11-19T05:09:47;100233.69;;;5.44;100.00
829;BME280;396;52.558;13.188;2023-11-19T05:12:14;100228.63;;;5.42;100.00
829;BME280;396;52.558;13.188;2023-11-19T05:14:40;100229.97;;;5.45;100.00
829;BME280;396;52.558;13.188;2023-11-19T05:17:13;100232.91;;;5.43;100.00
829;BME280;396;52.558;13.188;2023-11-19T05:19:40;100226.72;;;5.43;100.00
829;BME280;396;52.558;13.188;2023-11-19T05:22:07;100221.63;;;5.46;100.00
829;BME280;396;52.558;13.188;2023-11-19T05:24:34;100209.53;;;5.44;100.00
829;BME280;396;52.558;13.188;2023-11-19T05:27:01;100214.66;;;5.45;100.00
829;BME280;396;52.558;13.188;2023-11-19T05:29:27;100209.28;;;5.45;100.00
829;BME280;396;52.558;13.188;2023-11-19T05:31:55;100203.34;;;5.43;100.00
829;BME280;396;52.558;13.188;2023-11-19T05:34:21;100196.13;;;5.39;100.00
829;BME280;396;52.558;13.188;2023-11-19T05:36:48;100185.13;;;5.40;100.00
829;BME280;396;52.558;13.188;2023-11-19T05:39:16;100181.34;;;5.41;100.00
829;BME280;396;52.558;13.188;2023-11-19T05:41:44;100170.31;;;5.43;100.00
829;BME280;396;52.558;13.188;2023-11-19T05:44:10;100169.53;;;5.42;100.00
829;BME280;396;52.558;13.188;2023-11-19T05:46:37;100174.34;;;5.45;100.00
829;BME280;396;52.558;13.188;2023-11-19T05:49:07;100163.84;;;5.49;100.00
829;BME280;396;52.558;13.188;2023-11-19T05:51:36;100152.28;;;5.53;100.00
829;BME280;396;52.558;13.188;2023-11-19T05:54:04;100158.22;;;5.50;100.00
829;BME280;396;52.558;13.188;2023-11-19T05:56:33;100160.59;;;5.52;100.00
829;BME280;396;52.558;13.188;2023-11-19T05:59:00;100157.91;;;5.52;100.00
829;BME280;396;52.558;13.188;2023-11-19T06:01:28;100156.56;;;5.54;100.00
829;BME280;396;52.558;13.188;2023-11-19T06:03:55;100154.69;;;5.55;100.00
829;BME280;396;52.558;13.188;2023-11-19T06:06:22;100147.13;;;5.57;100.00
829;BME280;396;52.558;13.188;2023-11-19T06:08:49;100131.28;;;5.61;100.00
829;BME280;396;52.558;13.188;2023-11-19T06:11:16;100131.56;;;5.59;100.00
829;BME280;396;52.558;13.188;2023-11-19T06:13:47;100119.44;;;5.62;100.00
829;BME280;396;52.558;13.188;2023-11-19T06:16:15;100123.47;;;5.64;100.00
829;BME280;396;52.558;13.188;2023-11-19T06:18:42;100132.03;;;5.66;100.00
829;BME280;396;52.558;13.188;2023-11-19T06:21:09;100131.47;;;5.69;100.00
829;BME280;396;52.558;13.188;2023-11-19T06:23:36;100110.22;;;5.73;100.00
829;BME280;396;52.558;13.188;2023-11-19T06:26:03;100109.44;;;5.72;100.00
829;BME280;396;52.558;13.188;2023-11-19T06:28:30;100092.22;;;5.73;100.00
829;BME280;396;52.558;13.188;2023-11-19T06:30:58;100092.78;;;5.70;100.00
829;BME280;396;52.558;13.188;2023-11-19T06:33:25;100098.72;;;5.67;100.00
829;BME280;396;52.558;13.188;2023-11-19T06:35:52;100096.50;;;5.74;100.00
829;BME280;396;52.558;13.188;2023-11-19T06:38:19;100102.41;;;5.76;100.00
829;BME280;396;52.558;13.188;2023-11-19T06:40:46;100092.72;;;5.75;100.00
829;BME280;396;52.558;13.188;2023-11-19T06:43:13;100090.03;;;5.75;100.00
829;BME280;396;52.558;13.188;2023-11-19T06:45:40;100095.97;;;5.77;100.00
829;BME280;396;52.558;13.188;2023-11-19T06:48:08;100109.91;;;5.79;100.00
829;BME280;396;52.558;13.188;2023-11-19T06:50:35;100109.63;;;5.81;100.00
829;BME280;396;52.558;13.188;2023-11-19T06:53:02;100106.63;;;5.88;100.00
829;BME280;396;52.558;13.188;2023-11-19T06:55:30;100096.94;;;5.92;100.00
829;BME280;396;52.558;13.188;2023-11-19T06:57:59;100093.97;;;5.88;100.00
829;BME280;396;52.558;13.188;2023-11-19T07:00:26;100081.91;;;5.86;100.00
829;BME280;396;52.558;13.188;2023-11-19T07:02:52;100091.03;;;5.90;100.00
829;BME280;396;52.558;13.188;2023-11-19T07:05:20;100092.09;;;5.94;100.00
829;BME280;396;52.558;13.188;2023-11-19T07:07:47;100092.09;;;5.94;100.00
829;BME280;396;52.558;13.188;2023-11-19T07:10:13;100093.16;;;5.93;100.00
829;BME280;396;52.558;13.188;2023-11-19T07:12:40;100092.09;;;5.94;100.00
829;BME280;396;52.558;13.188;2023-11-19T07:15:08;100090.72;;;5.96;100.00
829;BME280;396;52.558;13.188;2023-11-19T07:17:35;100095.28;;;5.96;100.00
829;BME280;396;52.558;13.188;2023-11-19T07:20:01;100096.84;;;6.02;100.00
829;BME280;396;52.558;13.188;2023-11-19T07:22:32;100104.34;;;6.05;100.00
829;BME280;396;52.558;13.188;2023-11-19T07:24:59;100091.19;;;6.03;100.00
829;BME280;396;52.558;13.188;2023-11-19T07:27:26;100087.97;;;6.01;100.00
829;BME280;396;52.558;13.188;2023-11-19T07:29:53;100087.66;;;6.08;100.00
829;BME280;396;52.558;13.188;2023-11-19T07:32:19;100093.53;;;6.10;100.00
829;BME280;396;52.558;13.188;2023-11-19T07:34:46;100090.59;;;6.12;100.00
829;BME280;396;52.558;13.188;2023-11-19T07:37:13;100095.69;;;6.13;100.00
829;BME280;396;52.558;13.188;2023-11-19T07:39:41;100095.69;;;6.13;100.00
829;BME280;396;52.558;13.188;2023-11-19T07:42:07;100085.47;;;6.10;100.00
829;BME280;396;52.558;13.188;2023-11-19T07:44:34;100076.53;;;6.20;100.00
829;BME280;396;52.558;13.188;2023-11-19T07:47:02;100069.78;;;6.22;100.00
829;BME280;396;52.558;13.188;2023-11-19T07:49:28;100082.94;;;6.24;100.00
829;BME280;396;52.558;13.188;2023-11-19T07:51:56;100087.69;;;6.32;100.00
829;BME280;396;52.558;13.188;2023-11-19T07:54:22;100085.19;;;6.41;100.00
829;BME280;396;52.558;13.188;2023-11-19T07:56:50;100094.00;;;6.46;100.00
829;BME280;396;52.558;13.188;2023-11-19T07:59:17;100098.97;;;6.58;100.00
829;BME280;396;52.558;13.188;2023-11-19T08:01:44;100085.75;;;6.62;100.00
829;BME280;396;52.558;13.188;2023-11-19T08:04:11;100099.16;;;6.67;100.00
829;BME280;396;52.558;13.188;2023-11-19T08:06:37;100087.28;;;6.68;100.00
829;BME280;396;52.558;13.188;2023-11-19T08:09:04;100081.06;;;6.72;100.00
829;BME280;396;52.558;13.188;2023-11-19T08:11:31;100077.22;;;6.78;100.00
829;BME280;396;52.558;13.188;2023-11-19T08:14:00;100086.81;;;6.85;100.00
829;BME280;396;52.558;13.188;2023-11-19T08:16:26;100085.69;;;6.91;100.00
829;BME280;396;52.558;13.188;2023-11-19T08:18:53;100073.75;;;6.97;100.00
829;BME280;396;52.558;13.188;2023-11-19T08:21:19;100074.78;;;7.01;100.00
829;BME280;396;52.558;13.188;2023-11-19T08:23:48;100078.19;;;7.06;100.00
829;BME280;396;52.558;13.188;2023-11-19T08:26:14;100071.44;;;7.09;100.00
829;BME280;396;52.558;13.188;2023-11-19T08:28:41;100057.09;;;7.14;100.00
829;BME280;396;52.558;13.188;2023-11-19T08:31:09;100067.50;;;7.20;100.00
829;BME280;396;52.558;13.188;2023-11-19T08:33:36;100061.53;;;7.23;100.00
829;BME280;396;52.558;13.188;2023-11-19T08:36:03;100051.22;;;7.30;100.00
829;BME280;396;52.558;13.188;2023-11-19T08:38:30;100046.03;;;7.34;100.00
829;BME280;396;52.558;13.188;2023-11-19T08:40:56;100049.88;;;7.47;100.00
829;BME280;396;52.558;13.188;2023-11-19T08:43:25;100047.41;;;7.50;100.00
829;BME280;396;52.558;13.188;2023-11-19T08:45:51;100057.88;;;7.52;100.00
829;BME280;396;52.558;13.188;2023-11-19T08:48:19;100049.50;;;7.53;100.00
829;BME280;396;52.558;13.188;2023-11-19T08:50:46;100030.91;;;7.52;100.00
829;BME280;396;52.558;13.188;2023-11-19T08:53:13;100045.72;;;7.54;100.00
829;BME280;396;52.558;13.188;2023-11-19T08:55:39;100048.03;;;7.61;100.00
829;BME280;396;52.558;13.188;2023-11-19T08:58:06;100047.44;;;7.64;100.00
829;BME280;396;52.558;13.188;2023-11-19T09:00:33;100054.06;;;7.72;100.00
829;BME280;396;52.558;13.188;2023-11-19T09:03:00;100046.09;;;7.80;100.00
829;BME280;396;52.558;13.188;2023-11-19T09:05:28;100065.78;;;7.81;100.00
829;BME280;396;52.558;13.188;2023-11-19T09:07:55;100054.09;;;7.86;100.00
829;BME280;396;52.558;13.188;2023-11-19T09:10:21;100057.81;;;7.90;100.00
829;BME280;396;52.558;13.188;2023-11-19T09:12:48;100049.03;;;7.98;100.00
829;BME280;396;52.558;13.188;2023-11-19T09:15:14;100055.13;;;8.03;100.00
829;BME280;396;52.558;13.188;2023-11-19T09:17:42;100079.09;;;8.05;100.00
829;BME280;396;52.558;13.188;2023-11-19T09:20:09;100069.53;;;8.13;100.00
829;BME280;396;52.558;13.188;2023-11-19T09:22:39;100077.25;;;8.19;100.00
829;BME280;396;52.558;13.188;2023-11-19T09:25:06;100064.16;;;8.26;100.00
829;BME280;396;52.558;13.188;2023-11-19T09:27:33;100064.06;;;8.31;100.00
829;BME280;396;52.558;13.188;2023-11-19T09:29:59;100056.72;;;8.37;100.00
829;BME280;396;52.558;13.188;2023-11-19T09:32:26;100059.59;;;8.41;100.00
829;BME280;396;52.558;13.188;2023-11-19T09:34:53;100055.31;;;8.40;100.00
829;BME280;396;52.558;13.188;2023-11-19T09:37:19;100046.94;;;8.41;100.00
829;BME280;396;52.558;13.188;2023-11-19T09:39:47;100048.91;;;8.49;100.00
829;BME280;396;52.558;13.188;2023-11-19T09:42:14;100050.09;;;8.57;100.00
829;BME280;396;52.558;13.188;2023-11-19T09:44:42;100038.50;;;8.70;100.00
829;BME280;396;52.558;13.188;2023-11-19T09:47:10;100039.38;;;8.79;100.00
829;BME280;396;52.558;13.188;2023-11-19T09:49:37;100036.28;;;8.86;100.00
829;BME280;396;52.558;13.188;2023-11-19T09:52:05;100031.97;;;8.99;100.00
829;BME280;396;52.558;13.188;2023-11-19T09:54:31;100037.13;;;9.09;100.00
829;BME280;396;52.558;13.188;2023-11-19T09:57:01;100033.72;;;9.17;100.00
829;BME280;396;52.558;13.188;2023-11-19T09:59:29;100037.56;;;9.25;100.00
829;BME280;396;52.558;13.188;2023-11-19T10:01:56;100036.38;;;9.31;100.00
829;BME280;396;52.558;13.188;2023-11-19T10:04:23;100042.31;;;9.42;100.00
829;BME280;396;52.558;13.188;2023-11-19T10:06:51;100023.59;;;9.45;100.00
829;BME280;396;52.558;13.188;2023-11-19T10:09:18;100027.28;;;9.49;100.00
829;BME280;396;52.558;13.188;2023-11-19T10:11:45;100037.31;;;9.49;100.00
829;BME280;396;52.558;13.188;2023-11-19T10:14:13;100033.47;;;9.50;100.00
829;BME280;396;52.558;13.188;2023-11-19T10:16:40;100032.25;;;9.56;100.00
829;BME280;396;52.558;13.188;2023-11-19T10:19:08;100032.31;;;9.65;100.00
829;BME280;396;52.558;13.188;2023-11-19T10:21:38;100033.16;;;9.74;100.00
829;BME280;396;52.558;13.188;2023-11-19T10:24:05;100025.78;;;9.88;100.00
829;BME280;396;52.558;13.188;2023-11-19T10:26:32;100031.75;;;10.07;100.00
829;BME280;396;52.558;13.188;2023-11-19T10:28:59;100024.25;;;10.35;100.00
829;BME280;396;52.558;13.188;2023-11-19T10:31:28;100020.81;;;10.52;100.00
829;BME280;396;52.558;13.188;2023-11-19T10:33:54;100018.16;;;10.70;100.00
829;BME280;396;52.558;13.188;2023-11-19T10:36:21;100008.44;;;10.77;100.00
829;BME280;396;52.558;13.188;2023-11-19T10:38:53;100010.69;;;10.93;100.00
829;BME280;396;52.558;13.188;2023-11-19T10:41:29;100009.59;;;11.02;100.00
829;BME280;396;52.558;13.188;2023-11-19T10:43:56;100010.53;;;11.15;100.00
829;BME280;396;52.558;13.188;2023-11-19T10:46:37;100017.09;;;11.23;100.00
829;BME280;396;52.558;13.188;2023-11-19T10:49:05;100017.25;;;11.26;100.00
829;BME280;396;52.558;13.188;2023-11-19T10:51:32;100014.06;;;11.24;100.00
829;BME280;396;52.558;13.188;2023-11-19T10:54:02;100021.88;;;11.26;100.00
829;BME280;396;52.558;13.188;2023-11-19T10:56:31;100008.78;;;11.28;100.00
829;BME280;396;52.558;13.188;2023-11-19T10:58:59;100016.63;;;11.29;100.00
829;BME280;396;52.558;13.188;2023-11-19T11:01:29;100013.41;;;11.27;100.00
829;BME280;396;52.558;13.188;2023-11-19T11:04:02;100011.03;;;11.43;100.00
829;BME280;396;52.558;13.188;2023-11-19T11:06:29;100011.00;;;11.60;100.00
829;BME280;396;52.558;13.188;2023-11-19T11:08:57;100010.81;;;11.74;100.00
829;BME280;396;52.558;13.188;2023-11-19T11:11:24;100013.03;;;11.90;100.00
829;BME280;396;52.558;13.188;2023-11-19T11:13:53;100013.97;;;11.94;100.00
829;BME280;396;52.558;13.188;2023-11-19T11:16:22;100008.66;;;12.15;100.00
829;BME280;396;52.558;13.188;2023-11-19T11:18:50;100014.81;;;12.32;100.00
829;BME280;396;52.558;13.188;2023-11-19T11:21:21;100006.31;;;12.63;100.00
829;BME280;396;52.558;13.188;2023-11-19T11:26:58;100012.88;;;14.37;97.20
829;BME280;396;52.558;13.188;2023-11-19T11:29:37;100012.75;;;14.95;92.75
829;BME280;396;52.558;13.188;2023-11-19T11:32:17;100024.34;;;15.60;90.64
829;BME280;396;52.558;13.188;2023-11-19T11:34:58;100030.38;;;16.25;86.33
829;BME280;396;52.558;13.188;2023-11-19T11:37:33;100017.94;;;16.44;84.40
829;BME280;396;52.558;13.188;2023-11-19T11:40:01;100020.94;;;16.23;83.63
829;BME280;396;52.558;13.188;2023-11-19T11:42:35;100012.75;;;15.35;86.27
829;BME280;396;52.558;13.188;2023-11-19T11:45:04;100024.50;;;14.58;91.69
829;BME280;396;52.558;13.188;2023-11-19T11:48:10;100017.84;;;13.98;94.71
829;BME280;396;52.558;13.188;2023-11-19T11:50:54;100011.97;;;13.63;97.12
829;BME280;396;52.558;13.188;2023-11-19T11:53:23;100017.06;;;13.31;99.46
829;BME280;396;52.558;13.188;2023-11-19T11:55:55;100014.19;;;13.07;100.00
829;BME280;396;52.558;13.188;2023-11-19T11:58:31;100005.63;;;12.96;100.00
829;BME280;396;52.558;13.188;2023-11-19T12:01:00;100010.59;;;12.94;100.00
829;BME280;396;52.558;13.188;2023-11-19T12:03:28;100014.31;;;12.90;100.00
829;BME280;396;52.558;13.188;2023-11-19T12:05:56;100009.72;;;12.81;100.00
829;BME280;396;52.558;13.188;2023-11-19T12:08:29;100021.41;;;12.82;100.00
829;BME280;396;52.558;13.188;2023-11-19T12:10:57;100017.44;;;12.79;100.00
829;BME280;396;52.558;13.188;2023-11-19T12:13:52;100015.91;;;12.61;100.00
829;BME280;396;52.558;13.188;2023-11-19T12:16:19;100018.63;;;12.61;100.00
829;BME280;396;52.558;13.188;2023-11-19T12:18:47;100012.25;;;12.57;100.00
829;BME280;396;52.558;13.188;2023-11-19T12:21:27;100006.47;;;12.37;100.00
829;BME280;396;52.558;13.188;2023-11-19T12:23:57;100009.56;;;12.27;100.00
829;BME280;396;52.558;13.188;2023-11-19T12:26:38;100012.78;;;12.12;100.00
829;BME280;396;52.558;13.188;2023-11-19T12:29:06;99996.53;;;12.03;100.00
829;BME280;396;52.558;13.188;2023-11-19T12:31:33;99991.81;;;11.92;100.00
829;BME280;396;52.558;13.188;2023-11-19T12:34:06;99987.63;;;11.94;100.00
829;BME280;396;52.558;13.188;2023-11-19T12:36:34;100002.34;;;11.84;100.00
829;BME280;396;52.558;13.188;2023-11-19T12:39:02;100007.44;;;11.77;100.00
829;BME280;396;52.558;13.188;2023-11-19T12:41:29;100006.97;;;11.75;100.00
829;BME280;396;52.558;13.188;2023-11-19T12:44:09;99992.97;;;12.20;100.00
829;BME280;396;52.558;13.188;2023-11-19T12:46:36;100013.84;;;12.28;100.00
829;BME280;396;52.558;13.188;2023-11-19T12:49:03;100017.06;;;12.22;100.00
829;BME280;396;52.558;13.188;2023-11-19T12:51:31;100016.31;;;12.12;100.00
829;BME280;396;52.558;13.188;2023-11-19T12:53:58;100024.47;;;12.04;100.00
829;BME280;396;52.558;13.188;2023-11-19T12:56:26;100018.13;;;12.00;100.00
829;BME280;396;52.558;13.188;2023-11-19T12:58:52;100016.94;;;12.18;100.00
829;BME280;396;52.558;13.188;2023-11-19T13:01:20;100000.88;;;12.34;100.00
829;BME280;396;52.558;13.188;2023-11-19T13:03:47;100005.28;;;12.47;100.00
829;BME280;396;52.558;13.188;2023-11-19T13:06:14;99990.53;;;12.57;100.00
829;BME280;396;52.558;13.188;2023-11-19T13:08:42;100007.97;;;12.56;100.00
829;BME280;396;52.558;13.188;2023-11-19T13:11:10;100001.88;;;12.59;100.00
829;BME280;396;52.558;13.188;2023-11-19T13:13:58;100003.28;;;12.65;100.00
829;BME280;396;52.558;13.188;2023-11-19T13:16:25;99998.88;;;12.52;100.00
829;BME280;396;52.558;13.188;2023-11-19T13:18:52;99995.22;;;12.48;100.00
829;BME280;396;52.558;13.188;2023-11-19T13:21:18;100003.75;;;12.37;100.00
829;BME280;396;52.558;13.188;2023-11-19T13:23:45;99995.97;;;12.27;100.00
829;BME280;396;52.558;13.188;2023-11-19T13:26:12;99990.41;;;12.24;100.00
829;BME280;396;52.558;13.188;2023-11-19T13:28:39;100006.69;;;12.24;100.00
829;BME280;396;52.558;13.188;2023-11-19T13:31:07;99994.25;;;12.23;100.00